createdAt,value
2019-05-21T00:00:16.487Z,86.97
2019-05-21T00:02:54.536Z,87.13
2019-05-21T00:05:27.226Z,87.14
2019-05-21T00:07:59.815Z,87.05
2019-05-21T00:10:32.378Z,86.90
2019-05-21T00:13:05.445Z,86.97
2019-05-21T00:15:39.605Z,86.91
2019-05-21T00:18:12.548Z,86.89
2019-05-21T00:20:45.178Z,86.89
2019-05-21T00:23:17.565Z,86.86
2019-05-21T00:25:50.409Z,86.93
2019-05-21T00:28:40.939Z,86.84
2019-05-21T00:31:48.058Z,86.99
2019-05-21T00:34:55.503Z,87.04
2019-05-21T00:38:03.645Z,87.16
2019-05-21T00:41:11.896Z,87.70
2019-05-21T00:43:53.656Z,87.76
2019-05-21T00:46:26.275Z,87.88
2019-05-21T00:48:58.825Z,87.69
2019-05-21T00:51:31.446Z,87.59
2019-05-21T00:54:04.076Z,87.49
2019-05-21T00:56:36.547Z,87.53
2019-05-21T00:59:09.525Z,87.38
2019-05-21T01:01:42.326Z,87.58
2019-05-21T01:04:14.816Z,87.47
2019-05-21T01:06:47.426Z,87.49
2019-05-21T01:09:19.966Z,87.47
2019-05-21T01:11:52.746Z,87.42
2019-05-21T01:14:25.419Z,87.38
2019-05-21T01:16:59.065Z,87.40
2019-05-21T01:19:31.767Z,87.57
2019-05-21T01:22:04.465Z,87.57
2019-05-21T01:24:37.566Z,87.48
2019-05-21T01:27:10.367Z,87.47
2019-05-21T01:29:43.259Z,87.51
2019-05-21T01:32:15.816Z,87.53
2019-05-21T01:34:48.615Z,87.61
2019-05-21T01:37:21.076Z,87.52
2019-05-21T01:39:53.696Z,87.40
2019-05-21T01:42:26.415Z,87.47
2019-05-21T01:45:00.229Z,87.74
2019-05-21T01:47:32.885Z,87.72
2019-05-21T01:50:05.916Z,87.54
2019-05-21T01:52:38.745Z,87.71
2019-05-21T01:55:11.438Z,87.77
2019-05-21T01:57:44.027Z,87.75
2019-05-21T02:00:16.906Z,87.95
2019-05-21T02:02:50.342Z,88.02
2019-05-21T02:05:32.690Z,87.88
2019-05-21T02:07:57.635Z,87.80
2019-05-21T02:10:30.116Z,87.95
2019-05-21T02:13:02.847Z,87.77
2019-05-21T02:15:35.506Z,88.05
2019-05-21T02:18:08.136Z,88.31
2019-05-21T02:20:40.605Z,88.25
2019-05-21T02:23:13.901Z,88.36
2019-05-21T02:25:46.619Z,88.66
2019-05-21T02:28:19.257Z,88.73
2019-05-21T02:30:56.197Z,88.60
2019-05-21T02:33:26.967Z,88.62
2019-05-21T02:36:01.236Z,88.35
2019-05-21T02:38:34.106Z,88.40
2019-05-21T02:41:06.796Z,88.47
2019-05-21T02:43:39.666Z,88.45
2019-05-21T02:46:12.208Z,88.37
2019-05-21T02:48:45.057Z,88.25
2019-05-21T02:51:17.716Z,88.38
2019-05-21T02:53:50.329Z,88.26
2019-05-21T02:56:23.179Z,88.08
2019-05-21T02:58:55.937Z,88.13
2019-05-21T03:01:40.808Z,87.98
2019-05-21T03:04:13.460Z,88.01
2019-05-21T03:06:46.228Z,87.92
2019-05-21T03:09:18.948Z,88.09
2019-05-21T03:11:51.802Z,88.26
2019-05-21T03:14:25.205Z,88.49
2019-05-21T03:16:57.837Z,88.31
2019-05-21T03:19:30.430Z,88.64
2019-05-21T03:22:03.108Z,88.58
2019-05-21T03:24:35.870Z,88.46
2019-05-21T03:27:08.917Z,88.34
2019-05-21T03:29:41.766Z,88.34
2019-05-21T03:32:14.448Z,88.24
2019-05-21T03:34:47.057Z,88.12
2019-05-21T03:37:19.836Z,87.84
2019-05-21T03:39:52.511Z,88.05
2019-05-21T03:42:25.228Z,87.93
2019-05-21T03:45:00.355Z,87.82
2019-05-21T03:47:32.428Z,88.26
2019-05-21T03:50:05.278Z,88.38
2019-05-21T03:52:38.147Z,88.14
2019-05-21T03:55:11.436Z,88.40
2019-05-21T03:57:46.481Z,88.47
2019-05-21T04:00:19.465Z,88.40
2019-05-21T04:02:52.166Z,88.59
2019-05-21T04:05:26.874Z,88.62
2019-05-21T04:07:59.676Z,88.14
2019-05-21T04:10:32.416Z,88.09
2019-05-21T04:13:08.769Z,88.03
2019-05-21T04:16:00.155Z,87.90
2019-05-21T04:18:40.137Z,88.14
2019-05-21T04:21:12.936Z,88.25
2019-05-21T04:23:45.598Z,87.90
2019-05-21T04:26:18.398Z,88.09
2019-05-21T04:28:50.985Z,87.96
2019-05-21T04:31:23.989Z,87.80
2019-05-21T04:33:57.177Z,87.42
2019-05-21T04:36:29.862Z,87.36
2019-05-21T04:39:02.554Z,86.99
2019-05-21T04:41:35.577Z,86.26
2019-05-21T04:44:08.118Z,86.01
2019-05-21T04:46:40.876Z,85.75
2019-05-21T04:49:13.877Z,85.58
2019-05-21T04:51:46.858Z,84.77
2019-05-21T04:54:19.486Z,84.70
2019-05-21T04:56:53.778Z,83.90
2019-05-21T04:59:26.374Z,83.59
2019-05-21T05:01:59.168Z,83.22
2019-05-21T05:04:32.096Z,82.95
2019-05-21T05:07:04.693Z,82.03
2019-05-21T05:09:37.577Z,81.33
2019-05-21T05:12:10.296Z,81.28
2019-05-21T05:14:43.366Z,80.92
2019-05-21T05:17:15.997Z,80.95
2019-05-21T05:19:49.639Z,80.72
2019-05-21T05:22:22.216Z,80.74
2019-05-21T05:24:54.784Z,80.71
2019-05-21T05:27:27.287Z,79.42
2019-05-21T05:30:00.161Z,78.59
2019-05-21T05:32:32.944Z,77.90
2019-05-21T05:35:05.794Z,77.03
2019-05-21T05:37:44.168Z,77.22
2019-05-21T05:40:13.696Z,77.46
2019-05-21T05:42:46.591Z,77.50
2019-05-21T05:45:19.297Z,76.97
2019-05-21T05:47:51.758Z,77.99
2019-05-21T05:50:27.057Z,77.47
2019-05-21T05:52:59.846Z,77.51
2019-05-21T05:55:32.462Z,78.34
2019-05-21T05:58:05.058Z,76.92
2019-05-21T06:00:38.198Z,75.30
2019-05-21T06:03:10.777Z,74.64
2019-05-21T06:05:44.345Z,74.40
2019-05-21T06:08:17.059Z,75.33
2019-05-21T06:10:49.917Z,75.04
2019-05-21T06:13:22.440Z,74.33
2019-05-21T06:15:55.008Z,74.33
2019-05-21T06:18:27.806Z,75.57
2019-05-21T06:21:03.496Z,76.85
2019-05-21T06:23:36.275Z,77.30
2019-05-21T06:26:08.940Z,77.11
2019-05-21T06:28:41.753Z,75.95
2019-05-21T06:31:14.577Z,75.75
2019-05-21T06:33:47.566Z,75.42
2019-05-21T06:36:20.329Z,75.87
2019-05-21T06:38:53.099Z,76.66
2019-05-21T06:41:25.847Z,77.39
2019-05-21T06:43:58.736Z,77.19
2019-05-21T06:46:31.425Z,76.78
2019-05-21T06:49:04.107Z,76.98
2019-05-21T06:51:36.785Z,76.77
2019-05-21T06:54:09.341Z,76.79
2019-05-21T06:56:42.235Z,76.82
2019-05-21T06:59:14.769Z,76.06
2019-05-21T07:01:47.465Z,75.31
2019-05-21T07:04:20.058Z,74.17
2019-05-21T07:06:52.827Z,74.34
2019-05-21T07:09:25.275Z,74.22
2019-05-21T07:11:57.846Z,73.86
2019-05-21T07:14:30.385Z,74.02
2019-05-21T07:17:02.934Z,74.80
2019-05-21T07:19:35.595Z,75.43
2019-05-21T07:22:12.509Z,75.79
2019-05-21T07:24:42.577Z,75.77
2019-05-21T07:27:15.155Z,76.00
2019-05-21T07:29:48.105Z,75.39
2019-05-21T07:32:20.636Z,74.87
2019-05-21T07:34:53.180Z,73.55
2019-05-21T07:37:26.159Z,73.51
2019-05-21T07:39:58.698Z,73.87
2019-05-21T07:42:31.196Z,73.82
2019-05-21T07:45:04.036Z,73.91
2019-05-21T07:47:36.845Z,74.40
2019-05-21T07:50:10.625Z,74.58
2019-05-21T07:52:43.307Z,74.69
2019-05-21T07:55:15.977Z,74.55
2019-05-21T07:57:48.664Z,74.36
2019-05-21T08:00:21.996Z,73.87
2019-05-21T08:02:54.511Z,73.69
2019-05-21T08:05:27.004Z,73.24
2019-05-21T08:07:59.797Z,73.28
2019-05-21T08:10:32.426Z,73.51
2019-05-21T08:13:07.836Z,73.27
2019-05-21T08:15:41.137Z,72.96
2019-05-21T08:18:13.839Z,71.76
2019-05-21T08:20:47.010Z,70.18
2019-05-21T08:23:19.873Z,68.38
2019-05-21T08:25:52.407Z,67.19
2019-05-21T08:28:25.099Z,66.95
2019-05-21T08:31:01.594Z,67.15
2019-05-21T08:33:32.286Z,67.30
2019-05-21T08:36:05.420Z,67.66
2019-05-21T08:38:38.677Z,64.73
2019-05-21T08:41:11.300Z,63.78
2019-05-21T08:43:44.015Z,61.94
2019-05-21T08:46:16.586Z,63.42
2019-05-21T08:48:49.208Z,64.68
2019-05-21T08:51:21.856Z,66.21
2019-05-21T08:53:54.365Z,67.56
2019-05-21T08:56:27.106Z,67.67
2019-05-21T08:58:59.895Z,66.26
2019-05-21T09:01:32.573Z,65.57
2019-05-21T09:04:05.126Z,65.90
2019-05-21T09:06:37.715Z,66.60
2019-05-21T09:09:10.602Z,67.42
2019-05-21T09:11:43.395Z,68.29
2019-05-21T09:14:16.105Z,68.84
2019-05-21T09:16:48.666Z,69.52
2019-05-21T09:19:21.345Z,68.70
2019-05-21T09:21:54.236Z,68.32
2019-05-21T09:24:26.844Z,68.78
2019-05-21T09:27:03.278Z,69.63
2019-05-21T09:29:36.019Z,70.45
2019-05-21T09:32:08.904Z,71.52
2019-05-21T09:34:48.568Z,72.03
2019-05-21T09:37:19.791Z,72.27
2019-05-21T09:40:14.656Z,71.59
2019-05-21T09:42:50.421Z,69.57
2019-05-21T09:45:23.055Z,65.75
2019-05-21T09:47:55.627Z,62.39
2019-05-21T09:50:28.279Z,62.17
2019-05-21T09:53:00.835Z,61.34
2019-05-21T09:55:33.941Z,62.02
2019-05-21T09:58:34.739Z,60.58
2019-05-21T10:01:25.071Z,59.95
2019-05-21T10:03:58.870Z,60.67
2019-05-21T10:06:31.776Z,61.15
2019-05-21T10:09:09.915Z,60.84
2019-05-21T10:11:42.794Z,60.84
2019-05-21T10:14:15.508Z,59.45
2019-05-21T10:16:48.375Z,59.45
2019-05-21T10:19:20.844Z,58.74
2019-05-21T10:21:56.831Z,57.47
2019-05-21T10:24:29.039Z,57.21
2019-05-21T10:27:03.571Z,59.33
2019-05-21T10:29:35.967Z,61.59
2019-05-21T10:32:08.955Z,63.90
2019-05-21T10:34:41.505Z,64.04
2019-05-21T10:37:14.180Z,65.11
2019-05-21T10:39:47.796Z,65.90
2019-05-21T10:42:20.645Z,66.24
2019-05-21T10:44:53.401Z,67.32
2019-05-21T10:47:26.006Z,67.34
2019-05-21T10:49:58.656Z,67.36
2019-05-21T10:52:31.295Z,67.78
2019-05-21T10:55:03.824Z,67.78
2019-05-21T10:57:36.446Z,67.96
2019-05-21T11:00:12.928Z,68.26
2019-05-21T11:02:56.546Z,68.72
2019-05-21T11:05:40.827Z,70.19
2019-05-21T11:08:23.418Z,70.59
2019-05-21T11:10:48.016Z,70.59
2019-05-21T11:13:20.698Z,71.68
2019-05-21T11:15:53.606Z,72.45
2019-05-21T11:18:26.265Z,73.22
2019-05-21T11:20:59.094Z,73.96
2019-05-21T11:23:31.669Z,74.36
2019-05-21T11:26:05.607Z,74.51
2019-05-21T11:28:38.301Z,74.40
2019-05-21T11:31:11.376Z,73.88
2019-05-21T11:33:44.016Z,73.40
2019-05-21T11:36:16.690Z,72.60
2019-05-21T11:38:49.914Z,68.53
2019-05-21T11:41:22.804Z,65.54
2019-05-21T11:43:55.375Z,63.34
2019-05-21T11:46:28.045Z,64.14
2019-05-21T11:49:02.585Z,65.16
2019-05-21T11:51:35.797Z,64.95
2019-05-21T11:54:08.498Z,64.95
2019-05-21T11:56:44.896Z,67.09
2019-05-21T11:59:17.725Z,66.05
2019-05-21T12:01:50.285Z,62.77
2019-05-21T12:04:22.998Z,61.51
2019-05-21T12:06:55.686Z,63.15
2019-05-21T12:09:30.337Z,63.15
2019-05-21T12:12:04.224Z,66.51
2019-05-21T12:14:37.056Z,66.51
2019-05-21T12:17:09.646Z,65.56
2019-05-21T12:19:42.345Z,64.60
2019-05-21T12:22:16.651Z,63.50
2019-05-21T12:24:50.842Z,64.24
2019-05-21T12:27:23.486Z,64.89
2019-05-21T12:29:57.477Z,66.19
2019-05-21T12:32:31.747Z,67.83
2019-05-21T12:35:04.561Z,69.31
2019-05-21T12:37:37.446Z,70.19
2019-05-21T12:40:11.775Z,69.84
2019-05-21T12:42:44.411Z,62.48
2019-05-21T12:45:17.276Z,62.48
2019-05-21T12:47:50.885Z,60.98
2019-05-21T12:50:25.538Z,59.26
2019-05-21T12:52:58.008Z,59.18
2019-05-21T12:55:30.673Z,57.92
2019-05-21T12:58:03.353Z,56.67
2019-05-21T13:00:38.155Z,57.18
2019-05-21T13:03:10.800Z,58.72
2019-05-21T13:05:44.121Z,60.53
2019-05-21T13:08:19.497Z,62.17
2019-05-21T13:10:52.252Z,63.67
2019-05-21T13:13:40.477Z,65.89
2019-05-21T13:16:17.359Z,66.61
2019-05-21T13:18:50.377Z,67.34
2019-05-21T13:21:24.380Z,64.28
2019-05-21T13:23:57.336Z,61.79
2019-05-21T13:26:30.589Z,59.61
2019-05-21T13:29:03.356Z,59.27
2019-05-21T13:31:37.246Z,61.06
2019-05-21T13:34:10.224Z,62.90
2019-05-21T13:36:43.029Z,64.95
2019-05-21T13:39:19.315Z,64.96
2019-05-21T13:41:52.754Z,64.40
2019-05-21T13:44:26.891Z,64.32
2019-05-21T13:47:01.029Z,61.90
2019-05-21T13:49:34.509Z,61.92
2019-05-21T13:52:10.793Z,58.47
2019-05-21T13:54:46.201Z,61.59
2019-05-21T13:57:22.496Z,61.54
2019-05-21T13:59:55.706Z,61.39
2019-05-21T14:02:30.069Z,61.51
2019-05-21T14:05:07.181Z,59.76
2019-05-21T14:07:41.942Z,58.42
2019-05-21T14:10:20.018Z,58.36
2019-05-21T14:12:52.255Z,58.08
2019-05-21T14:15:25.795Z,57.65
2019-05-21T14:17:58.850Z,57.14
2019-05-21T14:20:31.876Z,55.63
2019-05-21T14:23:05.767Z,54.50
2019-05-21T14:25:40.857Z,54.82
2019-05-21T14:28:14.824Z,54.44
2019-05-21T14:30:49.998Z,54.28
2019-05-21T14:33:23.924Z,54.75
2019-05-21T14:36:00.203Z,55.29
2019-05-21T14:38:40.902Z,54.25
2019-05-21T14:41:14.965Z,56.18
2019-05-21T14:44:08.879Z,56.42
2019-05-21T14:46:41.496Z,57.46
2019-05-21T14:49:14.422Z,56.48
2019-05-21T14:51:47.185Z,54.30
2019-05-21T14:54:26.701Z,53.71
2019-05-21T14:56:57.258Z,53.48
2019-05-21T14:59:29.866Z,54.35
2019-05-21T15:02:02.664Z,55.47
2019-05-21T15:04:36.065Z,56.41
2019-05-21T15:07:09.105Z,57.44
2019-05-21T15:09:43.116Z,58.06
2019-05-21T15:12:18.988Z,59.22
2019-05-21T15:14:52.567Z,59.68
2019-05-21T15:17:25.206Z,58.47
2019-05-21T15:19:59.766Z,57.88
2019-05-21T15:22:35.639Z,58.16
2019-05-21T15:25:13.154Z,58.76
2019-05-21T15:27:46.018Z,59.67
2019-05-21T15:30:22.240Z,60.45
2019-05-21T15:32:55.167Z,60.83
2019-05-21T15:35:35.304Z,61.33
2019-05-21T15:38:26.224Z,61.83
2019-05-21T15:41:13.122Z,61.30
2019-05-21T15:43:49.430Z,61.30
2019-05-21T15:46:47.684Z,60.07
2019-05-21T15:49:14.318Z,60.53
2019-05-21T15:51:51.316Z,61.11
2019-05-21T15:54:24.645Z,61.51
2019-05-21T15:57:12.521Z,62.51
2019-05-21T15:59:38.468Z,62.97
2019-05-21T16:02:14.141Z,63.31
2019-05-21T16:04:56.525Z,63.20
2019-05-21T16:07:32.874Z,63.65
2019-05-21T16:10:13.215Z,63.19
2019-05-21T16:12:46.207Z,63.80
2019-05-21T16:15:36.039Z,64.01
2019-05-21T16:18:30.367Z,64.27
2019-05-21T16:21:10.365Z,64.80
2019-05-21T16:23:46.763Z,64.71
2019-05-21T16:26:23.422Z,64.92
2019-05-21T16:28:57.940Z,65.05
2019-05-21T16:31:37.726Z,65.32
2019-05-21T16:34:11.007Z,65.70
2019-05-21T16:36:44.145Z,66.03
2019-05-21T16:39:17.586Z,66.43
2019-05-21T16:41:50.266Z,66.71
2019-05-21T16:44:22.915Z,67.00
2019-05-21T16:46:55.683Z,66.98
2019-05-21T16:49:28.486Z,66.95
2019-05-21T16:52:01.399Z,67.32
2019-05-21T16:54:36.546Z,67.12
2019-05-21T16:57:18.286Z,67.69
2019-05-21T17:00:05.804Z,67.91
2019-05-21T17:02:40.845Z,68.30
2019-05-21T17:05:28.496Z,68.55
2019-05-21T17:08:01.977Z,68.73
2019-05-21T17:10:38.416Z,69.25
2019-05-21T17:13:37.115Z,69.28
2019-05-21T17:16:13.358Z,69.45
2019-05-21T17:18:47.735Z,68.65
2019-05-21T17:21:35.364Z,69.09
2019-05-21T17:24:08.706Z,69.24
2019-05-21T17:26:46.125Z,68.80
2019-05-21T17:29:21.786Z,69.22
2019-05-21T17:31:55.895Z,69.62
2019-05-21T17:34:31.249Z,69.78
2019-05-21T17:37:26.437Z,69.80
2019-05-21T17:40:03.960Z,69.71
2019-05-21T17:42:53.715Z,70.01
2019-05-21T17:45:30.765Z,70.20
2019-05-21T17:48:04.878Z,70.20
2019-05-21T17:50:39.640Z,70.01
2019-05-21T17:53:16.355Z,70.16
2019-05-21T17:55:49.675Z,70.34
2019-05-21T17:58:31.942Z,70.56
2019-05-21T18:01:10.398Z,70.79
2019-05-21T18:03:45.589Z,71.03
2019-05-21T18:06:28.855Z,71.28
2019-05-21T18:09:09.776Z,71.55
2019-05-21T18:11:57.589Z,71.38
2019-05-21T18:14:32.675Z,71.47
2019-05-21T18:17:10.637Z,71.41
2019-05-21T18:19:44.507Z,71.36
2019-05-21T18:22:22.088Z,71.51
2019-05-21T18:24:55.404Z,71.83
2019-05-21T18:27:28.567Z,71.78
2019-05-21T18:30:04.169Z,72.03
2019-05-21T18:32:38.487Z,71.97
2019-05-21T18:35:12.807Z,72.24
2019-05-21T18:37:46.384Z,72.44
2019-05-21T18:40:26.373Z,72.73
2019-05-21T18:43:01.047Z,72.85
2019-05-21T18:45:39.866Z,72.93
2019-05-21T18:48:14.945Z,73.08
2019-05-21T18:50:49.161Z,73.13
2019-05-21T18:53:22.977Z,73.65
2019-05-21T18:55:56.556Z,73.62
2019-05-21T18:58:32.206Z,73.40
2019-05-21T19:01:05.776Z,73.58
2019-05-21T19:03:44.027Z,73.69
2019-05-21T19:06:17.803Z,73.86
2019-05-21T19:08:53.886Z,73.76
2019-05-21T19:11:29.024Z,73.80
2019-05-21T19:14:02.724Z,73.86
2019-05-21T19:16:35.566Z,73.77
2019-05-21T19:19:11.233Z,73.92
2019-05-21T19:21:45.830Z,73.77
2019-05-21T19:24:24.534Z,73.79
2019-05-21T19:26:59.386Z,73.98
2019-05-21T19:29:33.295Z,74.34
2019-05-21T19:32:08.884Z,74.35
2019-05-21T19:34:44.257Z,74.57
2019-05-21T19:37:17.895Z,74.75
2019-05-21T19:39:57.317Z,74.84
2019-05-21T19:42:30.719Z,74.81
2019-05-21T19:45:03.534Z,74.87
2019-05-21T19:47:36.516Z,74.84
2019-05-21T19:50:09.987Z,75.03
2019-05-21T19:52:43.876Z,74.96
2019-05-21T19:55:28.795Z,74.87
2019-05-21T19:58:06.555Z,74.96
2019-05-21T20:00:46.407Z,75.10
2019-05-21T20:03:21.625Z,75.22
2019-05-21T20:05:56.416Z,75.40
2019-05-21T20:08:30.237Z,75.35
2019-05-21T20:11:04.075Z,75.22
2019-05-21T20:13:39.237Z,75.23
2019-05-21T20:16:20.757Z,75.62
2019-05-21T20:18:54.226Z,75.39
2019-05-21T20:21:29.805Z,75.56
2019-05-21T20:24:07.195Z,75.64
2019-05-21T20:26:40.996Z,75.39
2019-05-21T20:29:17.276Z,75.44
2019-05-21T20:31:52.426Z,75.55
2019-05-21T20:34:26.835Z,75.53
2019-05-21T20:37:03.575Z,75.54
2019-05-21T20:39:41.014Z,75.71
2019-05-21T20:42:19.135Z,75.67
2019-05-21T20:44:53.617Z,75.69
2019-05-21T20:47:33.507Z,75.73
2019-05-21T20:50:11.972Z,75.73
2019-05-21T20:52:44.365Z,75.67
2019-05-21T20:55:20.545Z,75.87
2019-05-21T20:57:55.586Z,76.09
2019-05-21T21:00:30.187Z,76.78
2019-05-21T21:03:05.929Z,76.68
2019-05-21T21:05:46.235Z,76.67
2019-05-21T21:08:27.695Z,76.90
2019-05-21T21:11:02.040Z,77.53
2019-05-21T21:13:35.733Z,77.90
2019-05-21T21:16:09.658Z,77.84
2019-05-21T21:18:53.964Z,77.83
2019-05-21T21:21:29.267Z,77.73
2019-05-21T21:24:18.636Z,77.87
2019-05-21T21:26:56.736Z,77.58
2019-05-21T21:29:31.046Z,77.43
2019-05-21T21:32:12.019Z,77.22
2019-05-21T21:34:45.986Z,77.10
2019-05-21T21:37:20.537Z,77.14
2019-05-21T21:39:53.960Z,77.15
2019-05-21T21:42:26.636Z,76.92
2019-05-21T21:44:59.366Z,76.66
2019-05-21T21:47:32.335Z,76.83
2019-05-21T21:50:06.758Z,77.17
2019-05-21T21:52:40.385Z,76.63
2019-05-21T21:55:16.156Z,76.60
2019-05-21T21:57:48.985Z,76.58
2019-05-21T22:01:02.019Z,76.50
2019-05-21T22:03:38.915Z,76.68
2019-05-21T22:06:14.071Z,76.68
2019-05-21T22:08:47.864Z,76.62
2019-05-21T22:11:21.635Z,76.71
2019-05-21T22:13:56.456Z,76.45
2019-05-21T22:16:29.605Z,76.60
2019-05-21T22:19:02.686Z,76.60
2019-05-21T22:21:37.734Z,76.53
2019-05-21T22:24:12.226Z,76.41
2019-05-21T22:26:45.268Z,76.34
2019-05-21T22:29:18.084Z,76.34
2019-05-21T22:31:51.598Z,76.27
2019-05-21T22:34:25.238Z,76.42
2019-05-21T22:36:58.417Z,76.56
2019-05-21T22:39:34.111Z,76.48
2019-05-21T22:42:08.134Z,76.39
2019-05-21T22:45:08.076Z,76.50
2019-05-21T22:47:36.755Z,76.56
2019-05-21T22:50:10.977Z,76.64
2019-05-21T22:52:43.536Z,76.75
2019-05-21T22:55:16.285Z,76.81
2019-05-21T22:57:51.644Z,76.89
2019-05-21T23:00:24.245Z,77.17
2019-05-21T23:02:57.325Z,77.23
2019-05-21T23:05:29.883Z,77.37
2019-05-21T23:08:02.925Z,77.46
2019-05-21T23:10:35.416Z,77.79
2019-05-21T23:13:08.365Z,77.63
2019-05-21T23:15:41.666Z,77.63
2019-05-21T23:18:24.796Z,77.76
2019-05-21T23:21:17.695Z,77.73
2019-05-21T23:23:51.406Z,77.76
2019-05-21T23:26:24.088Z,77.59
2019-05-21T23:28:56.676Z,77.65
2019-05-21T23:31:30.309Z,77.38
2019-05-21T23:34:03.892Z,77.46
2019-05-21T23:36:37.197Z,77.23
2019-05-21T23:39:15.805Z,77.30
2019-05-21T23:41:48.455Z,77.29
2019-05-21T23:44:21.087Z,77.28
2019-05-21T23:46:54.156Z,77.18
2019-05-21T23:49:26.706Z,77.12
2019-05-21T23:51:59.446Z,76.97
2019-05-21T23:54:32.087Z,76.87
2019-05-21T23:57:05.735Z,77.13
2019-05-21T23:59:38.396Z,76.85
